sensor_id;sensor_type;location;lat;lon;timestamp;temperature;humidity
4209;DHT22;36320;48.860;2.380;2023-07-31T00:01:02;22.90;68.60
4209;DHT22;36320;48.860;2.380;2023-07-31T00:03:28;22.90;68.80
4209;DHT22;36320;48.860;2.380;2023-07-31T00:05:54;24.20;70.10
4209;DHT22;36320;48.860;2.380;2023-07-31T00:08:19;22.90;68.90
4209;DHT22;36320;48.860;2.380;2023-07-31T00:10:45;22.80;68.80
4209;DHT22;36320;48.860;2.380;2023-07-31T00:13:11;22.90;69.00
4209;DHT22;36320;48.860;2.380;2023-07-31T00:15:38;22.80;69.10
4209;DHT22;36320;48.860;2.380;2023-07-31T00:18:04;22.80;69.50
4209;DHT22;36320;48.860;2.380;2023-07-31T00:20:30;22.70;69.40
4209;DHT22;36320;48.860;2.380;2023-07-31T00:22:55;22.80;69.50
4209;DHT22;36320;48.860;2.380;2023-07-31T00:25:21;22.80;69.50
4209;DHT22;36320;48.860;2.380;2023-07-31T00:27:47;22.80;70.10
4209;DHT22;36320;48.860;2.380;2023-07-31T00:30:13;22.80;69.30
4209;DHT22;36320;48.860;2.380;2023-07-31T00:32:39;22.70;69.40
4209;DHT22;36320;48.860;2.380;2023-07-31T00:35:05;22.80;69.80
4209;DHT22;36320;48.860;2.380;2023-07-31T00:37:30;22.80;69.60
4209;DHT22;36320;48.860;2.380;2023-07-31T00:39:56;22.80;69.60
4209;DHT22;36320;48.860;2.380;2023-07-31T00:42:22;22.80;69.60
4209;DHT22;36320;48.860;2.380;2023-07-31T00:44:48;22.80;69.70
4209;DHT22;36320;48.860;2.380;2023-07-31T00:47:15;22.80;69.60
4209;DHT22;36320;48.860;2.380;2023-07-31T00:49:43;22.70;69.70
4209;DHT22;36320;48.860;2.380;2023-07-31T00:52:11;22.70;70.00
4209;DHT22;36320;48.860;2.380;2023-07-31T00:54:36;22.60;70.20
4209;DHT22;36320;48.860;2.380;2023-07-31T00:57:02;22.50;70.50
4209;DHT22;36320;48.860;2.380;2023-07-31T00:59:28;22.50;70.60
4209;DHT22;36320;48.860;2.380;2023-07-31T01:01:54;22.60;70.50
4209;DHT22;36320;48.860;2.380;2023-07-31T01:04:22;22.50;70.40
4209;DHT22;36320;48.860;2.380;2023-07-31T01:07:02;22.40;70.40
4209;DHT22;36320;48.860;2.380;2023-07-31T01:09:45;22.40;70.60
4209;DHT22;36320;48.860;2.380;2023-07-31T01:12:16;22.40;70.70
4209;DHT22;36320;48.860;2.380;2023-07-31T01:15:05;22.40;70.70
4209;DHT22;36320;48.860;2.380;2023-07-31T01:17:32;22.40;70.70
4209;DHT22;36320;48.860;2.380;2023-07-31T01:20:02;22.40;70.70
4209;DHT22;36320;48.860;2.380;2023-07-31T01:23:07;22.40;70.90
4209;DHT22;36320;48.860;2.380;2023-07-31T01:28:25;22.40;70.60
4209;DHT22;36320;48.860;2.380;2023-07-31T01:30:55;22.30;70.70
4209;DHT22;36320;48.860;2.380;2023-07-31T01:33:23;22.40;70.70
4209;DHT22;36320;48.860;2.380;2023-07-31T01:35:50;22.40;70.40
4209;DHT22;36320;48.860;2.380;2023-07-31T01:38:20;22.40;70.60
4209;DHT22;36320;48.860;2.380;2023-07-31T01:40:51;22.20;70.60
4209;DHT22;36320;48.860;2.380;2023-07-31T01:43:17;22.20;70.80
4209;DHT22;36320;48.860;2.380;2023-07-31T01:45:44;21.80;70.50
4209;DHT22;36320;48.860;2.380;2023-07-31T01:48:09;22.10;70.90
4209;DHT22;36320;48.860;2.380;2023-07-31T01:50:35;22.10;70.70
4209;DHT22;36320;48.860;2.380;2023-07-31T01:53:00;22.20;70.70
4209;DHT22;36320;48.860;2.380;2023-07-31T01:55:26;22.20;70.80
4209;DHT22;36320;48.860;2.380;2023-07-31T01:57:54;22.20;70.70
4209;DHT22;36320;48.860;2.380;2023-07-31T02:00:20;22.20;71.10
4209;DHT22;36320;48.860;2.380;2023-07-31T02:02:46;22.20;70.60
4209;DHT22;36320;48.860;2.380;2023-07-31T02:05:11;22.10;70.30
4209;DHT22;36320;48.860;2.380;2023-07-31T02:07:37;21.70;70.00
4209;DHT22;36320;48.860;2.380;2023-07-31T02:10:03;22.10;70.40
4209;DHT22;36320;48.860;2.380;2023-07-31T02:12:31;22.00;70.20
4209;DHT22;36320;48.860;2.380;2023-07-31T02:14:59;22.00;70.50
4209;DHT22;36320;48.860;2.380;2023-07-31T02:17:25;22.20;71.10
4209;DHT22;36320;48.860;2.380;2023-07-31T02:19:52;22.40;70.30
4209;DHT22;36320;48.860;2.380;2023-07-31T02:22:18;22.20;70.10
4209;DHT22;36320;48.860;2.380;2023-07-31T02:24:43;22.20;70.00
4209;DHT22;36320;48.860;2.380;2023-07-31T02:27:09;22.20;69.80
4209;DHT22;36320;48.860;2.380;2023-07-31T02:29:34;22.20;69.60
4209;DHT22;36320;48.860;2.380;2023-07-31T02:32:00;22.40;69.80
4209;DHT22;36320;48.860;2.380;2023-07-31T02:34:26;22.30;69.60
4209;DHT22;36320;48.860;2.380;2023-07-31T02:36:51;22.20;69.40
4209;DHT22;36320;48.860;2.380;2023-07-31T02:39:17;22.00;69.20
4209;DHT22;36320;48.860;2.380;2023-07-31T02:41:44;22.20;70.10
4209;DHT22;36320;48.860;2.380;2023-07-31T02:44:10;22.20;69.40
4209;DHT22;36320;48.860;2.380;2023-07-31T02:46:40;22.30;69.40
4209;DHT22;36320;48.860;2.380;2023-07-31T02:49:05;22.50;69.50
4209;DHT22;36320;48.860;2.380;2023-07-31T02:51:31;22.20;69.30
4209;DHT22;36320;48.860;2.380;2023-07-31T02:53:57;22.00;69.00
4209;DHT22;36320;48.860;2.380;2023-07-31T02:56:22;22.10;69.10
4209;DHT22;36320;48.860;2.380;2023-07-31T02:58:49;22.10;69.20
4209;DHT22;36320;48.860;2.380;2023-07-31T03:01:15;22.00;69.10
4209;DHT22;36320;48.860;2.380;2023-07-31T03:03:44;21.90;69.00
4209;DHT22;36320;48.860;2.380;2023-07-31T03:06:10;21.90;68.80
4209;DHT22;36320;48.860;2.380;2023-07-31T03:08:36;21.90;69.00
4209;DHT22;36320;48.860;2.380;2023-07-31T03:11:03;21.90;68.90
4209;DHT22;36320;48.860;2.380;2023-07-31T03:13:29;21.80;69.10
4209;DHT22;36320;48.860;2.380;2023-07-31T03:15:55;21.70;69.00
4209;DHT22;36320;48.860;2.380;2023-07-31T03:18:21;21.70;69.30
4209;DHT22;36320;48.860;2.380;2023-07-31T03:20:47;21.80;69.00
4209;DHT22;36320;48.860;2.380;2023-07-31T03:23:14;21.90;69.00
4209;DHT22;36320;48.860;2.380;2023-07-31T03:25:58;21.90;69.00
4209;DHT22;36320;48.860;2.380;2023-07-31T03:28:24;21.80;69.20
4209;DHT22;36320;48.860;2.380;2023-07-31T03:30:51;21.80;69.20
4209;DHT22;36320;48.860;2.380;2023-07-31T03:33:17;21.80;69.00
4209;DHT22;36320;48.860;2.380;2023-07-31T03:35:42;21.80;69.10
4209;DHT22;36320;48.860;2.380;2023-07-31T03:38:08;21.90;69.10
4209;DHT22;36320;48.860;2.380;2023-07-31T03:40:34;21.80;69.00
4209;DHT22;36320;48.860;2.380;2023-07-31T03:42:59;21.70;69.10
4209;DHT22;36320;48.860;2.380;2023-07-31T03:45:26;21.60;69.40
4209;DHT22;36320;48.860;2.380;2023-07-31T03:47:52;21.50;69.40
4209;DHT22;36320;48.860;2.380;2023-07-31T03:50:20;21.60;69.60
4209;DHT22;36320;48.860;2.380;2023-07-31T03:52:45;21.50;69.70
4209;DHT22;36320;48.860;2.380;2023-07-31T03:55:11;21.50;69.60
4209;DHT22;36320;48.860;2.380;2023-07-31T03:57:37;21.60;69.70
4209;DHT22;36320;48.860;2.380;2023-07-31T04:00:07;21.70;69.50
4209;DHT22;36320;48.860;2.380;2023-07-31T04:02:33;21.80;69.50
4209;DHT22;36320;48.860;2.380;2023-07-31T04:04:59;21.70;69.30
4209;DHT22;36320;48.860;2.380;2023-07-31T04:07:24;21.80;69.20
4209;DHT22;36320;48.860;2.380;2023-07-31T04:09:50;21.80;69.30
4209;DHT22;36320;48.860;2.380;2023-07-31T04:12:16;21.80;69.20
4209;DHT22;36320;48.860;2.380;2023-07-31T04:14:41;21.60;69.00
4209;DHT22;36320;48.860;2.380;2023-07-31T04:17:07;21.50;68.70
4209;DHT22;36320;48.860;2.380;2023-07-31T04:19:33;21.60;68.70
4209;DHT22;36320;48.860;2.380;2023-07-31T04:21:58;21.60;68.50
4209;DHT22;36320;48.860;2.380;2023-07-31T04:24:24;21.50;68.30
4209;DHT22;36320;48.860;2.380;2023-07-31T04:26:52;21.60;68.20
4209;DHT22;36320;48.860;2.380;2023-07-31T04:29:18;21.40;68.00
4209;DHT22;36320;48.860;2.380;2023-07-31T04:31:44;21.40;68.00
4209;DHT22;36320;48.860;2.380;2023-07-31T04:34:10;21.40;68.00
4209;DHT22;36320;48.860;2.380;2023-07-31T04:36:37;21.50;68.70
4209;DHT22;36320;48.860;2.380;2023-07-31T04:39:02;21.40;67.90
4209;DHT22;36320;48.860;2.380;2023-07-31T04:41:28;21.30;67.90
4209;DHT22;36320;48.860;2.380;2023-07-31T04:43:54;21.40;67.80
4209;DHT22;36320;48.860;2.380;2023-07-31T04:46:19;21.30;67.70
4209;DHT22;36320;48.860;2.380;2023-07-31T04:48:45;21.40;68.00
4209;DHT22;36320;48.860;2.380;2023-07-31T04:51:11;21.50;67.80
4209;DHT22;36320;48.860;2.380;2023-07-31T04:53:36;21.40;67.70
4209;DHT22;36320;48.860;2.380;2023-07-31T04:56:05;21.40;68.10
4209;DHT22;36320;48.860;2.380;2023-07-31T04:58:32;21.40;68.40
4209;DHT22;36320;48.860;2.380;2023-07-31T05:00:57;21.30;67.90
4209;DHT22;36320;48.860;2.380;2023-07-31T05:03:23;21.20;68.10
4209;DHT22;36320;48.860;2.380;2023-07-31T05:05:50;21.20;68.60
4209;DHT22;36320;48.860;2.380;2023-07-31T05:08:16;21.20;68.70
4209;DHT22;36320;48.860;2.380;2023-07-31T05:10:45;21.30;68.80
4209;DHT22;36320;48.860;2.380;2023-07-31T05:13:11;21.30;69.00
4209;DHT22;36320;48.860;2.380;2023-07-31T05:15:37;21.40;68.90
4209;DHT22;36320;48.860;2.380;2023-07-31T05:18:02;21.30;69.40
4209;DHT22;36320;48.860;2.380;2023-07-31T05:20:29;21.40;69.70
4209;DHT22;36320;48.860;2.380;2023-07-31T05:22:56;21.30;69.90
4209;DHT22;36320;48.860;2.380;2023-07-31T05:25:22;21.20;70.00
4209;DHT22;36320;48.860;2.380;2023-07-31T05:27:47;21.10;70.30
4209;DHT22;36320;48.860;2.380;2023-07-31T05:30:14;21.20;70.40
4209;DHT22;36320;48.860;2.380;2023-07-31T05:32:40;21.40;70.40
4209;DHT22;36320;48.860;2.380;2023-07-31T05:35:06;21.50;70.30
4209;DHT22;36320;48.860;2.380;2023-07-31T05:37:32;21.60;70.00
4209;DHT22;36320;48.860;2.380;2023-07-31T05:39:58;21.70;70.00
4209;DHT22;36320;48.860;2.380;2023-07-31T05:42:23;21.60;70.00
4209;DHT22;36320;48.860;2.380;2023-07-31T05:44:49;21.60;70.50
4209;DHT22;36320;48.860;2.380;2023-07-31T05:47:15;21.50;71.30
4209;DHT22;36320;48.860;2.380;2023-07-31T05:49:40;21.40;71.20
4209;DHT22;36320;48.860;2.380;2023-07-31T05:52:08;21.40;71.40
4209;DHT22;36320;48.860;2.380;2023-07-31T05:54:34;21.50;71.60
4209;DHT22;36320;48.860;2.380;2023-07-31T05:57:00;21.60;71.40
4209;DHT22;36320;48.860;2.380;2023-07-31T05:59:25;21.60;71.70
4209;DHT22;36320;48.860;2.380;2023-07-31T06:01:51;21.50;72.10
4209;DHT22;36320;48.860;2.380;2023-07-31T06:04:17;21.40;72.40
4209;DHT22;36320;48.860;2.380;2023-07-31T06:06:43;21.60;72.30
4209;DHT22;36320;48.860;2.380;2023-07-31T06:09:08;21.60;72.40
4209;DHT22;36320;48.860;2.380;2023-07-31T06:11:34;21.20;72.80
4209;DHT22;36320;48.860;2.380;2023-07-31T06:14:00;21.80;72.50
4209;DHT22;36320;48.860;2.380;2023-07-31T06:16:25;21.80;72.10
4209;DHT22;36320;48.860;2.380;2023-07-31T06:18:52;21.70;72.30
4209;DHT22;36320;48.860;2.380;2023-07-31T06:21:18;21.70;72.80
4209;DHT22;36320;48.860;2.380;2023-07-31T06:23:43;21.80;72.50
4209;DHT22;36320;48.860;2.380;2023-07-31T06:26:09;21.80;72.70
4209;DHT22;36320;48.860;2.380;2023-07-31T06:28:36;21.80;72.80
4209;DHT22;36320;48.860;2.380;2023-07-31T06:31:02;21.70;73.10
4209;DHT22;36320;48.860;2.380;2023-07-31T06:33:28;21.80;72.70
4209;DHT22;36320;48.860;2.380;2023-07-31T06:35:54;21.70;73.00
4209;DHT22;36320;48.860;2.380;2023-07-31T06:38:26;21.80;73.20
4209;DHT22;36320;48.860;2.380;2023-07-31T06:40:52;21.80;73.60
4209;DHT22;36320;48.860;2.380;2023-07-31T06:43:20;22.00;73.30
4209;DHT22;36320;48.860;2.380;2023-07-31T06:45:46;21.90;73.40
4209;DHT22;36320;48.860;2.380;2023-07-31T06:48:13;22.00;73.40
4209;DHT22;36320;48.860;2.380;2023-07-31T06:50:39;22.10;73.30
4209;DHT22;36320;48.860;2.380;2023-07-31T06:53:05;21.90;73.40
4209;DHT22;36320;48.860;2.380;2023-07-31T06:55:30;22.00;73.50
4209;DHT22;36320;48.860;2.380;2023-07-31T06:57:56;21.90;73.70
4209;DHT22;36320;48.860;2.380;2023-07-31T07:00:23;22.00;73.80
4209;DHT22;36320;48.860;2.380;2023-07-31T07:02:50;22.00;73.90
4209;DHT22;36320;48.860;2.380;2023-07-31T07:05:18;22.10;73.90
4209;DHT22;36320;48.860;2.380;2023-07-31T07:07:43;22.10;74.00
4209;DHT22;36320;48.860;2.380;2023-07-31T07:10:09;22.20;73.80
4209;DHT22;36320;48.860;2.380;2023-07-31T07:12:37;22.10;74.10
4209;DHT22;36320;48.860;2.380;2023-07-31T07:15:03;22.10;75.00
4209;DHT22;36320;48.860;2.380;2023-07-31T07:17:29;21.80;74.00
4209;DHT22;36320;48.860;2.380;2023-07-31T07:19:59;22.10;74.60
4209;DHT22;36320;48.860;2.380;2023-07-31T07:22:26;22.10;74.70
4209;DHT22;36320;48.860;2.380;2023-07-31T07:24:53;22.10;74.50
4209;DHT22;36320;48.860;2.380;2023-07-31T07:27:19;22.00;74.70
4209;DHT22;36320;48.860;2.380;2023-07-31T07:29:46;22.10;74.30
4209;DHT22;36320;48.860;2.380;2023-07-31T07:32:12;22.30;74.60
4209;DHT22;36320;48.860;2.380;2023-07-31T07:34:38;22.40;74.30
4209;DHT22;36320;48.860;2.380;2023-07-31T07:37:04;22.30;74.10
4209;DHT22;36320;48.860;2.380;2023-07-31T07:39:30;22.50;74.10
4209;DHT22;36320;48.860;2.380;2023-07-31T07:41:55;22.90;73.50
4209;DHT22;36320;48.860;2.380;2023-07-31T07:44:21;22.90;73.10
4209;DHT22;36320;48.860;2.380;2023-07-31T07:46:47;22.90;72.90
4209;DHT22;36320;48.860;2.380;2023-07-31T07:49:12;23.00;72.60
4209;DHT22;36320;48.860;2.380;2023-07-31T07:51:39;23.20;72.60
4209;DHT22;36320;48.860;2.380;2023-07-31T07:54:05;23.30;72.10
4209;DHT22;36320;48.860;2.380;2023-07-31T07:56:32;23.60;71.70
4209;DHT22;36320;48.860;2.380;2023-07-31T07:58:58;23.50;71.50
4209;DHT22;36320;48.860;2.380;2023-07-31T08:01:24;23.40;71.40
4209;DHT22;36320;48.860;2.380;2023-07-31T08:03:50;23.40;71.40
4209;DHT22;36320;48.860;2.380;2023-07-31T08:06:17;23.20;71.10
4209;DHT22;36320;48.860;2.380;2023-07-31T08:08:42;23.00;71.40
4209;DHT22;36320;48.860;2.380;2023-07-31T08:11:08;23.60;72.10
4209;DHT22;36320;48.860;2.380;2023-07-31T08:13:34;23.30;71.10
4209;DHT22;36320;48.860;2.380;2023-07-31T08:16:02;23.20;70.90
4209;DHT22;36320;48.860;2.380;2023-07-31T08:18:28;23.30;71.20
4209;DHT22;36320;48.860;2.380;2023-07-31T08:20:53;23.00;70.20
4209;DHT22;36320;48.860;2.380;2023-07-31T08:23:19;23.50;70.40
4209;DHT22;36320;48.860;2.380;2023-07-31T08:25:45;23.50;70.20
4209;DHT22;36320;48.860;2.380;2023-07-31T08:28:12;23.30;69.90
4209;DHT22;36320;48.860;2.380;2023-07-31T08:30:37;23.50;69.70
4209;DHT22;36320;48.860;2.380;2023-07-31T08:33:03;23.30;69.70
4209;DHT22;36320;48.860;2.380;2023-07-31T08:35:29;23.50;70.10
4209;DHT22;36320;48.860;2.380;2023-07-31T08:37:55;23.90;69.90
4209;DHT22;36320;48.860;2.380;2023-07-31T08:40:20;24.20;69.00
4209;DHT22;36320;48.860;2.380;2023-07-31T08:42:55;24.30;68.80
4209;DHT22;36320;48.860;2.380;2023-07-31T08:45:28;24.20;68.60
4209;DHT22;36320;48.860;2.380;2023-07-31T08:47:57;24.00;68.50
4209;DHT22;36320;48.860;2.380;2023-07-31T08:50:23;23.60;68.70
4209;DHT22;36320;48.860;2.380;2023-07-31T08:52:50;23.50;68.90
4209;DHT22;36320;48.860;2.380;2023-07-31T08:55:17;23.70;69.10
4209;DHT22;36320;48.860;2.380;2023-07-31T08:57:43;24.00;68.80
4209;DHT22;36320;48.860;2.380;2023-07-31T09:00:11;24.20;68.20
4209;DHT22;36320;48.860;2.380;2023-07-31T09:02:56;24.10;68.10
4209;DHT22;36320;48.860;2.380;2023-07-31T09:05:21;24.30;68.30
4209;DHT22;36320;48.860;2.380;2023-07-31T09:07:50;24.30;67.70
4209;DHT22;36320;48.860;2.380;2023-07-31T09:10:16;24.00;67.90
4209;DHT22;36320;48.860;2.380;2023-07-31T09:12:42;24.00;68.00
4209;DHT22;36320;48.860;2.380;2023-07-31T09:15:09;24.00;68.20
4209;DHT22;36320;48.860;2.380;2023-07-31T09:17:36;24.30;68.30
4209;DHT22;36320;48.860;2.380;2023-07-31T09:20:16;24.40;68.40
4209;DHT22;36320;48.860;2.380;2023-07-31T09:22:43;24.00;69.40
4209;DHT22;36320;48.860;2.380;2023-07-31T09:25:23;24.00;69.70
4209;DHT22;36320;48.860;2.380;2023-07-31T09:28:03;24.10;69.20
4209;DHT22;36320;48.860;2.380;2023-07-31T09:30:29;23.90;69.20
4209;DHT22;36320;48.860;2.380;2023-07-31T09:33:05;24.10;69.10
4209;DHT22;36320;48.860;2.380;2023-07-31T09:35:34;24.10;68.90
4209;DHT22;36320;48.860;2.380;2023-07-31T09:38:03;24.00;69.10
4209;DHT22;36320;48.860;2.380;2023-07-31T09:43:02;23.60;70.60
4209;DHT22;36320;48.860;2.380;2023-07-31T09:45:28;23.50;70.60
4209;DHT22;36320;48.860;2.380;2023-07-31T09:47:55;23.40;71.00
4209;DHT22;36320;48.860;2.380;2023-07-31T09:50:23;23.40;71.10
4209;DHT22;36320;48.860;2.380;2023-07-31T09:52:52;23.50;71.30
4209;DHT22;36320;48.860;2.380;2023-07-31T09:55:19;23.60;72.10
4209;DHT22;36320;48.860;2.380;2023-07-31T09:57:47;24.00;71.90
4209;DHT22;36320;48.860;2.380;2023-07-31T10:00:17;24.20;71.80
4209;DHT22;36320;48.860;2.380;2023-07-31T10:02:47;24.10;71.10
4209;DHT22;36320;48.860;2.380;2023-07-31T10:05:17;23.80;71.00
4209;DHT22;36320;48.860;2.380;2023-07-31T10:07:54;23.70;71.50
4209;DHT22;36320;48.860;2.380;2023-07-31T10:10:22;23.60;71.80
4209;DHT22;36320;48.860;2.380;2023-07-31T10:12:52;23.60;71.90
4209;DHT22;36320;48.860;2.380;2023-07-31T10:15:19;23.50;72.00
4209;DHT22;36320;48.860;2.380;2023-07-31T10:17:48;23.40;72.30
4209;DHT22;36320;48.860;2.380;2023-07-31T10:20:15;23.30;72.60
4209;DHT22;36320;48.860;2.380;2023-07-31T10:22:45;23.20;73.00
4209;DHT22;36320;48.860;2.380;2023-07-31T10:25:12;23.20;73.80
4209;DHT22;36320;48.860;2.380;2023-07-31T10:27:39;23.00;74.40
4209;DHT22;36320;48.860;2.380;2023-07-31T10:30:10;23.00;75.50
4209;DHT22;36320;48.860;2.380;2023-07-31T10:32:38;23.00;76.40
4209;DHT22;36320;48.860;2.380;2023-07-31T10:35:06;23.20;77.10
4209;DHT22;36320;48.860;2.380;2023-07-31T10:37:41;23.40;77.10
4209;DHT22;36320;48.860;2.380;2023-07-31T10:40:12;23.70;76.80
4209;DHT22;36320;48.860;2.380;2023-07-31T10:45:32;22.70;76.20
4209;DHT22;36320;48.860;2.380;2023-07-31T10:48:03;23.10;76.60
4209;DHT22;36320;48.860;2.380;2023-07-31T10:50:31;23.60;77.10
4209;DHT22;36320;48.860;2.380;2023-07-31T10:53:00;23.80;77.00
4209;DHT22;36320;48.860;2.380;2023-07-31T10:58:10;23.80;76.50
4209;DHT22;36320;48.860;2.380;2023-07-31T11:00:43;23.80;76.70
4209;DHT22;36320;48.860;2.380;2023-07-31T11:03:14;23.60;76.50
4209;DHT22;36320;48.860;2.380;2023-07-31T11:06:03;23.60;76.70
4209;DHT22;36320;48.860;2.380;2023-07-31T11:08:34;23.60;76.70
4209;DHT22;36320;48.860;2.380;2023-07-31T11:13:41;23.50;77.10
4209;DHT22;36320;48.860;2.380;2023-07-31T11:16:09;23.50;77.50
4209;DHT22;36320;48.860;2.380;2023-07-31T11:18:35;23.40;78.00
4209;DHT22;36320;48.860;2.380;2023-07-31T11:21:01;23.20;78.50
4209;DHT22;36320;48.860;2.380;2023-07-31T11:23:26;22.90;79.40
4209;DHT22;36320;48.860;2.380;2023-07-31T11:25:53;22.90;79.90
4209;DHT22;36320;48.860;2.380;2023-07-31T11:28:25;23.20;79.90
4209;DHT22;36320;48.860;2.380;2023-07-31T11:30:51;23.30;80.00
4209;DHT22;36320;48.860;2.380;2023-07-31T11:33:17;23.20;80.00
4209;DHT22;36320;48.860;2.380;2023-07-31T11:35:48;23.20;80.30
4209;DHT22;36320;48.860;2.380;2023-07-31T11:38:31;23.30;80.50
4209;DHT22;36320;48.860;2.380;2023-07-31T11:41:04;23.80;79.90
4209;DHT22;36320;48.860;2.380;2023-07-31T11:43:33;24.10;79.10
4209;DHT22;36320;48.860;2.380;2023-07-31T11:46:01;23.90;79.10
4209;DHT22;36320;48.860;2.380;2023-07-31T11:48:33;23.90;79.20
4209;DHT22;36320;48.860;2.380;2023-07-31T11:51:04;24.00;79.20
4209;DHT22;36320;48.860;2.380;2023-07-31T11:53:40;24.00;79.20
4209;DHT22;36320;48.860;2.380;2023-07-31T11:56:10;24.10;79.10
4209;DHT22;36320;48.860;2.380;2023-07-31T11:58:37;23.90;79.10
4209;DHT22;36320;48.860;2.380;2023-07-31T12:01:05;23.90;79.10
4209;DHT22;36320;48.860;2.380;2023-07-31T12:03:31;23.90;78.90
4209;DHT22;36320;48.860;2.380;2023-07-31T12:05:58;23.80;78.80
4209;DHT22;36320;48.860;2.380;2023-07-31T12:08:24;23.80;79.00
4209;DHT22;36320;48.860;2.380;2023-07-31T12:10:51;23.70;78.80
4209;DHT22;36320;48.860;2.380;2023-07-31T12:15:47;23.50;79.50
4209;DHT22;36320;48.860;2.380;2023-07-31T12:18:15;23.40;79.60
4209;DHT22;36320;48.860;2.380;2023-07-31T12:20:48;23.40;79.60
4209;DHT22;36320;48.860;2.380;2023-07-31T12:23:21;23.50;79.80
4209;DHT22;36320;48.860;2.380;2023-07-31T12:26:14;23.70;79.90
4209;DHT22;36320;48.860;2.380;2023-07-31T12:28:48;23.70;79.60
4209;DHT22;36320;48.860;2.380;2023-07-31T12:31:16;23.60;79.90
4209;DHT22;36320;48.860;2.380;2023-07-31T12:33:49;23.50;80.10
4209;DHT22;36320;48.860;2.380;2023-07-31T12:36:22;23.60;80.00
4209;DHT22;36320;48.860;2.380;2023-07-31T12:38:50;23.60;79.90
4209;DHT22;36320;48.860;2.380;2023-07-31T12:41:17;23.50;79.50
4209;DHT22;36320;48.860;2.380;2023-07-31T12:43:47;23.50;79.30
4209;DHT22;36320;48.860;2.380;2023-07-31T12:46:17;23.50;79.20
4209;DHT22;36320;48.860;2.380;2023-07-31T12:48:46;23.30;79.50
4209;DHT22;36320;48.860;2.380;2023-07-31T12:51:11;23.20;79.40
4209;DHT22;36320;48.860;2.380;2023-07-31T12:53:40;23.30;79.30
4209;DHT22;36320;48.860;2.380;2023-07-31T12:56:07;23.50;79.00
4209;DHT22;36320;48.860;2.380;2023-07-31T12:58:33;23.70;78.70
4209;DHT22;36320;48.860;2.380;2023-07-31T13:00:58;23.80;78.10
4209;DHT22;36320;48.860;2.380;2023-07-31T13:03:24;23.90;78.00
4209;DHT22;36320;48.860;2.380;2023-07-31T13:05:51;23.90;77.60
4209;DHT22;36320;48.860;2.380;2023-07-31T13:08:17;23.90;77.80
4209;DHT22;36320;48.860;2.380;2023-07-31T13:10:43;23.80;77.70
4209;DHT22;36320;48.860;2.380;2023-07-31T13:13:09;23.90;77.70
4209;DHT22;36320;48.860;2.380;2023-07-31T13:15:35;23.90;77.30
4209;DHT22;36320;48.860;2.380;2023-07-31T13:18:01;23.90;77.30
4209;DHT22;36320;48.860;2.380;2023-07-31T13:20:27;23.80;77.10
4209;DHT22;36320;48.860;2.380;2023-07-31T13:22:53;24.00;77.00
4209;DHT22;36320;48.860;2.380;2023-07-31T13:25:18;24.00;76.50
4209;DHT22;36320;48.860;2.380;2023-07-31T13:27:44;23.90;76.50
4209;DHT22;36320;48.860;2.380;2023-07-31T13:30:11;23.90;76.60
4209;DHT22;36320;48.860;2.380;2023-07-31T13:32:37;24.00;76.60
4209;DHT22;36320;48.860;2.380;2023-07-31T13:35:06;23.90;76.50
4209;DHT22;36320;48.860;2.380;2023-07-31T13:37:32;23.90;76.40
4209;DHT22;36320;48.860;2.380;2023-07-31T13:39:58;24.00;76.40
4209;DHT22;36320;48.860;2.380;2023-07-31T13:42:23;23.90;76.50
4209;DHT22;36320;48.860;2.380;2023-07-31T13:44:49;23.90;77.60
4209;DHT22;36320;48.860;2.380;2023-07-31T13:47:15;23.80;78.00
4209;DHT22;36320;48.860;2.380;2023-07-31T13:49:40;23.80;78.40
4209;DHT22;36320;48.860;2.380;2023-07-31T13:52:08;23.70;78.60
4209;DHT22;36320;48.860;2.380;2023-07-31T13:54:34;23.70;78.80
4209;DHT22;36320;48.860;2.380;2023-07-31T13:57:00;23.60;78.80
4209;DHT22;36320;48.860;2.380;2023-07-31T13:59:26;23.60;79.00
4209;DHT22;36320;48.860;2.380;2023-07-31T14:01:51;23.60;79.00
4209;DHT22;36320;48.860;2.380;2023-07-31T14:04:17;23.80;79.10
4209;DHT22;36320;48.860;2.380;2023-07-31T14:06:43;23.80;78.90
4209;DHT22;36320;48.860;2.380;2023-07-31T14:09:09;23.90;78.80
4209;DHT22;36320;48.860;2.380;2023-07-31T14:11:35;24.10;78.60
4209;DHT22;36320;48.860;2.380;2023-07-31T14:14:01;23.90;78.20
4209;DHT22;36320;48.860;2.380;2023-07-31T14:16:33;24.10;78.30
4209;DHT22;36320;48.860;2.380;2023-07-31T14:18:59;24.20;78.40
4209;DHT22;36320;48.860;2.380;2023-07-31T14:21:25;24.20;78.70
4209;DHT22;36320;48.860;2.380;2023-07-31T14:23:52;23.90;79.40
4209;DHT22;36320;48.860;2.380;2023-07-31T14:26:18;23.90;80.00
4209;DHT22;36320;48.860;2.380;2023-07-31T14:28:44;23.70;80.40
4209;DHT22;36320;48.860;2.380;2023-07-31T14:31:10;23.60;80.60
4209;DHT22;36320;48.860;2.380;2023-07-31T14:33:36;23.40;80.70
4209;DHT22;36320;48.860;2.380;2023-07-31T14:36:02;23.40;81.30
4209;DHT22;36320;48.860;2.380;2023-07-31T14:38:29;23.10;81.30
4209;DHT22;36320;48.860;2.380;2023-07-31T14:40:57;23.50;82.10
4209;DHT22;36320;48.860;2.380;2023-07-31T14:43:23;23.60;82.50
4209;DHT22;36320;48.860;2.380;2023-07-31T14:45:48;23.70;82.50
4209;DHT22;36320;48.860;2.380;2023-07-31T14:48:15;23.80;82.70
4209;DHT22;36320;48.860;2.380;2023-07-31T14:50:40;23.90;82.50
4209;DHT22;36320;48.860;2.380;2023-07-31T14:53:09;24.00;82.20
4209;DHT22;36320;48.860;2.380;2023-07-31T14:55:35;23.80;82.40
4209;DHT22;36320;48.860;2.380;2023-07-31T14:58:01;23.60;82.50
4209;DHT22;36320;48.860;2.380;2023-07-31T15:00:27;23.50;83.10
4209;DHT22;36320;48.860;2.380;2023-07-31T15:02:52;23.70;83.40
4209;DHT22;36320;48.860;2.380;2023-07-31T15:05:18;23.70;83.20
4209;DHT22;36320;48.860;2.380;2023-07-31T15:07:44;23.60;83.30
4209;DHT22;36320;48.860;2.380;2023-07-31T15:10:09;23.60;83.40
4209;DHT22;36320;48.860;2.380;2023-07-31T15:12:35;23.60;83.60
4209;DHT22;36320;48.860;2.380;2023-07-31T15:15:03;23.50;83.70
4209;DHT22;36320;48.860;2.380;2023-07-31T15:17:29;23.50;84.00
4209;DHT22;36320;48.860;2.380;2023-07-31T15:19:55;23.40;84.00
4209;DHT22;36320;48.860;2.380;2023-07-31T15:22:21;23.60;84.10
4209;DHT22;36320;48.860;2.380;2023-07-31T15:24:47;23.60;83.80
4209;DHT22;36320;48.860;2.380;2023-07-31T15:27:14;23.70;83.90
4209;DHT22;36320;48.860;2.380;2023-07-31T15:29:40;23.70;83.90
4209;DHT22;36320;48.860;2.380;2023-07-31T15:32:06;23.60;84.10
4209;DHT22;36320;48.860;2.380;2023-07-31T15:34:33;23.50;84.20
4209;DHT22;36320;48.860;2.380;2023-07-31T15:36:59;23.20;84.40
4209;DHT22;36320;48.860;2.380;2023-07-31T15:39:25;23.00;84.90
4209;DHT22;36320;48.860;2.380;2023-07-31T15:41:50;23.00;85.30
4209;DHT22;36320;48.860;2.380;2023-07-31T15:44:18;23.00;85.40
4209;DHT22;36320;48.860;2.380;2023-07-31T15:46:43;23.20;85.60
4209;DHT22;36320;48.860;2.380;2023-07-31T15:49:10;23.20;85.40
4209;DHT22;36320;48.860;2.380;2023-07-31T15:51:36;23.20;85.70
4209;DHT22;36320;48.860;2.380;2023-07-31T15:54:01;23.20;85.80
4209;DHT22;36320;48.860;2.380;2023-07-31T15:56:27;23.00;85.90
4209;DHT22;36320;48.860;2.380;2023-07-31T15:58:53;23.00;86.40
4209;DHT22;36320;48.860;2.380;2023-07-31T16:01:23;23.10;86.20